Terminal Aerodrome Forecast
Issued by NWS Mt. Holly, NJ

Home | Current Version | Previous Version | Text Only | Print | Product List | Glossary On
Versions: 1 2 3 4 5 6 7 8 9 10 11 12 13 14 15 16 17 18 19 20 21 22 23 24
000
FTUS41 KPHI 252100 AAA
TAFPHL
TAF AMD
KPHL 252104Z 2521/2624 19006KT P6SM FEW300
     FM260500 21003KT P6SM BKN300
     FM261200 22007KT P6SM SCT060 BKN150
     FM261800 22011G17KT P6SM BKN060=

USA.gov is the U.S. government's official web portal to all federal, state and local government web resources and services.